Time;durP1;ratioP1;P1;durP2;ratioP2;P2;SDS_P1;SDS_P2;PMS_P1;PMS_P2;Temp;Humidity;BMP_temperature;BMP_pressure;BME280_temperature;BME280_humidity;BME280_pressure;Samples;Min_cycle;Max_cycle;Signal;HPM_P1;HPM_P2
2021/06/28 00:01:03;;;;;;;5.80;5.30;;;17.70;99.90;;;;;;5074534;28;20529;-79
2021/06/28 00:03:29;;;;;;;5.50;5.10;;;17.40;99.90;;;;;;5071956;28;20465;-78
2021/06/28 00:05:54;;;;;;;5.47;5.07;;;17.40;99.90;;;;;;5071348;28;20464;-78
2021/06/28 00:08:20;;;;;;;6.00;5.50;;;17.40;99.90;;;;;;5076930;28;20266;-78
2021/06/28 00:10:45;;;;;;;5.57;5.10;;;17.40;99.90;;;;;;5077514;28;20311;-78
2021/06/28 00:13:11;;;;;;;5.50;5.10;;;17.40;99.90;;;;;;5058243;28;20240;-78
2021/06/28 00:15:38;;;;;;;5.50;5.10;;;17.40;99.90;;;;;;5071911;28;20183;-78
2021/06/28 00:18:06;;;;;;;5.80;5.40;;;17.50;99.90;;;;;;5076311;28;20220;-80
2021/06/28 00:20:33;;;;;;;5.60;5.20;;;17.60;99.90;;;;;;5059154;28;20800;-80
2021/06/28 00:22:59;;;;;;;8.33;5.33;;;17.40;99.90;;;;;;5074463;28;20821;-79
2021/06/28 00:25:25;;;;;;;5.17;4.77;;;17.40;99.90;;;;;;5076749;28;20480;-79
2021/06/28 00:27:51;;;;;;;5.20;4.80;;;17.60;99.90;;;;;;5076621;28;20457;-78
2021/06/28 00:30:19;;;;;;;5.70;5.30;;;17.20;99.90;;;;;;5071158;28;21002;-78
2021/06/28 00:32:46;;;;;;;7.20;6.60;;;17.30;99.90;;;;;;5081507;28;20194;-77
2021/06/28 00:35:12;;;;;;;6.70;6.10;;;17.50;99.90;;;;;;5068922;28;20604;-79
2021/06/28 00:37:38;;;;;;;6.90;6.40;;;17.40;99.90;;;;;;5075305;28;20431;-79
2021/06/28 00:40:06;;;;;;;5.40;5.00;;;17.50;99.90;;;;;;5068234;28;20437;-79
2021/06/28 00:42:32;;;;;;;7.17;6.37;;;17.70;99.90;;;;;;5062575;28;20964;-80
2021/06/28 00:44:59;;;;;;;7.20;6.60;;;17.70;99.90;;;;;;5074832;28;20525;-80
2021/06/28 00:47:25;;;;;;;7.23;6.70;;;17.40;99.90;;;;;;5074708;28;20186;-80
2021/06/28 00:49:50;;;;;;;6.83;6.33;;;17.80;99.90;;;;;;5074045;28;20445;-80
2021/06/28 00:52:16;;;;;;;7.30;6.80;;;17.40;99.90;;;;;;5067853;28;20189;-80
2021/06/28 00:54:43;;;;;;;6.70;6.20;;;17.60;99.90;;;;;;5073013;28;20271;-81
2021/06/28 00:57:09;;;;;;;7.10;6.50;;;17.70;99.90;;;;;;5071056;28;20861;-81
2021/06/28 00:59:35;;;;;;;7.10;6.50;;;17.80;99.90;;;;;;5074568;28;20500;-81
2021/06/28 01:02:03;;;;;;;6.80;6.30;;;17.60;99.90;;;;;;5074315;28;20594;-81
2021/06/28 01:04:30;;;;;;;7.73;7.03;;;17.50;99.90;;;;;;5081638;28;20441;-80
2021/06/28 01:06:56;;;;;;;7.60;6.90;;;17.50;99.90;;;;;;5079049;28;20464;-80
2021/06/28 01:09:22;;;;;;;6.60;6.10;;;17.50;99.90;;;;;;5075900;28;20457;-80
2021/06/28 01:11:49;;;;;;;8.00;7.30;;;17.70;99.90;;;;;;5073513;28;20430;-80
2021/06/28 01:14:15;;;;;;;7.23;6.63;;;17.50;99.90;;;;;;5075681;28;20441;-80
2021/06/28 01:16:42;;;;;;;6.37;5.83;;;17.70;99.90;;;;;;5079251;28;20536;-80
2021/06/28 01:19:10;;;;;;;6.90;6.30;;;17.70;99.90;;;;;;5077069;28;20909;-79
2021/06/28 01:21:39;;;;;;;7.00;6.40;;;17.40;99.90;;;;;;5073528;28;20847;-80
2021/06/28 01:24:05;;;;;;;6.80;6.20;;;17.40;99.90;;;;;;5079924;28;20435;-79
2021/06/28 01:26:31;;;;;;;7.30;6.70;;;17.40;99.90;;;;;;5077715;28;20432;-80
2021/06/28 01:28:56;;;;;;;6.90;6.30;;;17.60;99.90;;;;;;5069807;28;20192;-79
2021/06/28 01:31:22;;;;;;;6.33;5.83;;;17.70;99.90;;;;;;5076011;28;20950;-79
2021/06/28 01:33:47;;;;;;;6.70;6.10;;;17.40;99.90;;;;;;5078865;28;20183;-80
2021/06/28 01:36:13;;;;;;;6.53;6.03;;;17.60;99.90;;;;;;5073914;28;20618;-80
2021/06/28 01:38:38;;;;;;;7.07;6.47;;;17.60;99.90;;;;;;5078710;28;20334;-80
2021/06/28 01:41:04;;;;;;;6.43;5.93;;;17.70;99.90;;;;;;5066464;28;20187;-79
2021/06/28 01:43:30;;;;;;;6.57;5.97;;;17.70;99.90;;;;;;5080255;28;20216;-79
2021/06/28 01:45:56;;;;;;;6.70;6.20;;;17.70;99.90;;;;;;5078985;28;20490;-79
2021/06/28 01:48:22;;;;;;;6.50;6.00;;;17.40;99.90;;;;;;5077444;28;20583;-79
2021/06/28 01:50:48;;;;;;;6.33;5.83;;;17.60;99.90;;;;;;5082684;28;20671;-79
2021/06/28 01:53:14;;;;;;;6.10;5.60;;;17.60;99.90;;;;;;5079737;28;20511;-79
2021/06/28 01:55:40;;;;;;;6.90;6.30;;;17.60;99.90;;;;;;5075269;28;21042;-79
2021/06/28 01:58:08;;;;;;;6.80;6.20;;;17.50;99.90;;;;;;5076535;28;20562;-79
2021/06/28 02:00:37;;;;;;;6.83;6.23;;;17.70;99.90;;;;;;5078941;28;20444;-79
2021/06/28 02:03:05;;;;;;;6.30;5.70;;;17.70;99.90;;;;;;5082115;28;20438;-79
2021/06/28 02:05:33;;;;;;;6.27;5.83;;;17.40;99.90;;;;;;5076114;28;20453;-78
2021/06/28 02:08:00;;;;;;;6.83;6.30;;;17.70;99.90;;;;;;5073408;28;20829;-78
2021/06/28 02:10:26;;;;;;;6.97;6.37;;;17.80;99.90;;;;;;5077191;28;20582;-79
2021/06/28 02:12:52;;;;;;;7.07;6.37;;;17.60;99.90;;;;;;5081192;28;20432;-78
2021/06/28 02:15:22;;;;;;;6.67;6.20;;;17.50;99.90;;;;;;5076448;28;20445;-78
2021/06/28 02:17:48;;;;;;;6.70;6.10;;;17.40;99.90;;;;;;5071546;28;20407;-78
2021/06/28 02:20:14;;;;;;;5.97;5.53;;;17.80;99.90;;;;;;5077012;28;20431;-78
2021/06/28 02:22:41;;;;;;;6.53;6.03;;;17.80;99.90;;;;;;5066375;28;20202;-78
2021/06/28 02:25:08;;;;;;;7.00;6.30;;;17.70;99.90;;;;;;5079324;28;20439;-78
2021/06/28 02:27:34;;;;;;;6.90;6.33;;;17.70;99.90;;;;;;5079351;28;20428;-78
2021/06/28 02:30:00;;;;;;;6.00;5.53;;;17.60;99.90;;;;;;5072716;28;20436;-78
2021/06/28 02:32:26;;;;;;;8.10;7.40;;;17.40;99.90;;;;;;5079486;28;20437;-78
2021/06/28 02:34:51;;;;;;;7.03;6.40;;;17.70;99.90;;;;;;5080143;28;20226;-78
2021/06/28 02:37:17;;;;;;;6.67;6.07;;;17.40;99.90;;;;;;5072044;28;20874;-79
2021/06/28 02:39:42;;;;;;;7.03;6.43;;;17.60;99.90;;;;;;5076713;28;20732;-79
2021/06/28 02:42:08;;;;;;;7.53;6.93;;;17.40;99.90;;;;;;5084862;28;20271;-78
2021/06/28 02:44:33;;;;;;;7.13;6.63;;;17.50;99.90;;;;;;5074977;28;20206;-78
2021/06/28 02:46:59;;;;;;;7.23;6.53;;;17.50;99.90;;;;;;5071059;28;20194;-79
2021/06/28 02:49:24;;;;;;;6.83;6.33;;;17.60;99.90;;;;;;5078549;28;20230;-79
2021/06/28 02:51:50;;;;;;;7.70;6.97;;;17.70;99.90;;;;;;5080673;28;20174;-79
2021/06/28 02:54:16;;;;;;;7.60;6.93;;;17.40;99.90;;;;;;5072219;28;20563;-79
2021/06/28 02:56:42;;;;;;;7.70;7.10;;;17.50;99.90;;;;;;5079862;28;20231;-79
2021/06/28 02:59:11;;;;;;;7.73;7.10;;;17.60;99.90;;;;;;5076853;28;20466;-79
2021/06/28 03:01:36;;;;;;;7.23;6.57;;;17.30;99.90;;;;;;5076530;28;20189;-79
2021/06/28 03:04:02;;;;;;;7.93;7.23;;;17.60;99.90;;;;;;5073365;28;20434;-79
2021/06/28 03:06:28;;;;;;;8.10;7.30;;;17.50;99.90;;;;;;5068415;28;20443;-78
2021/06/28 03:08:53;;;;;;;6.50;6.00;;;17.50;99.90;;;;;;5084003;28;20185;-79
2021/06/28 03:11:20;;;;;;;6.40;5.90;;;17.30;99.90;;;;;;5078712;28;20183;-79
2021/06/28 03:13:47;;;;;;;7.30;6.70;;;17.40;99.90;;;;;;5078493;28;20217;-79
2021/06/28 03:16:13;;;;;;;7.57;6.93;;;17.70;99.90;;;;;;5078411;28;20468;-79
2021/06/28 03:18:39;;;;;;;7.37;6.87;;;17.40;99.90;;;;;;5081858;28;20964;-79
2021/06/28 03:21:07;;;;;;;6.53;6.03;;;17.70;99.90;;;;;;5083744;28;20446;-78
2021/06/28 03:23:33;;;;;;;7.43;6.83;;;17.40;99.90;;;;;;5082184;28;20447;-79
2021/06/28 03:25:59;;;;;;;8.20;6.60;;;17.50;99.90;;;;;;5075245;28;20532;-78
2021/06/28 03:28:25;;;;;;;6.93;6.37;;;17.30;99.90;;;;;;5083588;28;20910;-79
2021/06/28 03:30:51;;;;;;;8.10;7.03;;;17.60;99.90;;;;;;5081187;28;20443;-78
2021/06/28 03:33:17;;;;;;;8.03;7.40;;;17.60;99.90;;;;;;5077078;28;20447;-78
2021/06/28 03:35:42;;;;;;;7.77;7.07;;;17.50;99.90;;;;;;5081274;28;20447;-78
2021/06/28 03:38:08;;;;;;;8.90;8.20;;;17.70;99.90;;;;;;5081299;28;20460;-78
2021/06/28 03:40:34;;;;;;;9.90;9.00;;;17.40;99.90;;;;;;5083079;28;20627;-79
2021/06/28 03:43:06;;;;;;;9.70;8.80;;;17.40;99.90;;;;;;5079549;28;20230;-79
2021/06/28 03:45:32;;;;;;;9.43;8.53;;;17.50;99.90;;;;;;5084174;28;20429;-78
2021/06/28 03:47:58;;;;;;;8.60;7.80;;;17.10;99.90;;;;;;5078976;28;20788;-78
2021/06/28 03:50:24;;;;;;;7.83;7.13;;;17.40;99.90;;;;;;5080585;28;20438;-78
2021/06/28 03:52:50;;;;;;;7.73;7.03;;;17.50;99.90;;;;;;5075924;28;20449;-78
2021/06/28 03:55:16;;;;;;;7.60;6.90;;;17.50;99.90;;;;;;5082079;28;20440;-77
2021/06/28 03:57:42;;;;;;;7.00;6.40;;;17.50;99.90;;;;;;5083112;28;20196;-77
2021/06/28 04:00:14;;;;;;;9.07;8.23;;;17.70;99.90;;;;;;5084751;28;20181;-78
2021/06/28 04:02:41;;;;;;;8.00;7.30;;;17.80;99.90;;;;;;5076123;28;20429;-78
2021/06/28 04:05:10;;;;;;;7.80;7.10;;;17.50;99.90;;;;;;5084533;28;20437;-78
2021/06/28 04:07:35;;;;;;;6.43;5.93;;;17.70;99.90;;;;;;5075097;28;20477;-78
2021/06/28 04:10:03;;;;;;;7.27;6.67;;;17.50;99.90;;;;;;5079064;28;20452;-78
2021/06/28 04:12:29;;;;;;;8.13;7.43;;;17.70;99.90;;;;;;5071367;28;20546;-78
2021/06/28 04:14:54;;;;;;;6.37;5.83;;;18.10;99.90;;;;;;5072013;28;20458;-78
2021/06/28 04:17:20;;;;;;;6.87;6.37;;;17.70;99.90;;;;;;5071307;28;20187;-76
2021/06/28 04:19:45;;;;;;;6.83;6.23;;;17.80;99.90;;;;;;5074287;28;20648;-77
2021/06/28 04:22:11;;;;;;;6.80;6.20;;;18.20;99.90;;;;;;5084539;28;20215;-77
2021/06/28 04:24:37;;;;;;;7.53;6.83;;;18.00;99.90;;;;;;5080422;28;20182;-77
2021/06/28 04:27:02;;;;;;;8.13;7.43;;;18.00;99.90;;;;;;5080335;28;20207;-77
2021/06/28 04:29:28;;;;;;;8.03;7.23;;;18.00;99.90;;;;;;5082223;28;20605;-77
2021/06/28 04:31:54;;;;;;;8.30;7.67;;;18.20;99.90;;;;;;5079699;28;20189;-78
2021/06/28 04:34:19;;;;;;;8.80;7.90;;;18.00;99.90;;;;;;5078042;28;20187;-77
2021/06/28 04:36:45;;;;;;;7.63;7.03;;;18.00;99.90;;;;;;5079996;28;20500;-77
2021/06/28 04:39:10;;;;;;;7.70;7.10;;;18.20;99.90;;;;;;5073459;28;20232;-77
2021/06/28 04:41:36;;;;;;;6.83;6.23;;;17.90;99.90;;;;;;5068939;28;20218;-77
2021/06/28 04:44:02;;;;;;;7.53;6.90;;;18.00;99.90;;;;;;5067631;28;20180;-77
2021/06/28 04:46:27;;;;;;;6.83;6.33;;;18.10;99.90;;;;;;5074924;28;20238;-77
2021/06/28 04:48:53;;;;;;;6.50;6.00;;;17.80;99.90;;;;;;5074692;28;20444;-77
2021/06/28 04:51:18;;;;;;;6.90;6.40;;;18.10;99.90;;;;;;5081101;28;20189;-77
2021/06/28 04:53:44;;;;;;;7.83;6.20;;;17.90;99.90;;;;;;5073914;28;20193;-77
2021/06/28 04:56:09;;;;;;;8.10;7.50;;;17.90;99.90;;;;;;5082668;28;20606;-77
2021/06/28 04:58:35;;;;;;;7.90;7.30;;;18.00;99.90;;;;;;5077860;28;20210;-77
2021/06/28 05:01:00;;;;;;;6.43;5.93;;;18.30;99.90;;;;;;5075484;28;20185;-77
2021/06/28 05:03:26;;;;;;;7.47;6.93;;;18.00;99.90;;;;;;5074479;28;20182;-76
2021/06/28 05:05:51;;;;;;;7.53;6.93;;;18.20;99.90;;;;;;5080521;28;20673;-76
2021/06/28 05:08:17;;;;;;;7.20;6.60;;;18.20;99.90;;;;;;5078407;28;20226;-78
2021/06/28 05:10:42;;;;;;;7.27;6.73;;;18.20;99.90;;;;;;5077731;28;20270;-76
2021/06/28 05:13:09;;;;;;;7.40;6.70;;;18.10;99.90;;;;;;5073908;28;20203;-76
2021/06/28 05:15:34;;;;;;;7.07;6.57;;;18.20;99.90;;;;;;5078343;28;20198;-76
2021/06/28 05:18:00;;;;;;;7.10;6.60;;;18.10;99.90;;;;;;5073653;28;20469;-76
2021/06/28 05:20:26;;;;;;;6.53;6.03;;;18.30;99.90;;;;;;5072775;28;20175;-76
2021/06/28 05:22:51;;;;;;;6.20;5.70;;;18.80;99.90;;;;;;5075454;28;20195;-76
2021/06/28 05:25:16;;;;;;;6.83;6.23;;;19.30;99.90;;;;;;5086311;28;20184;-76
2021/06/28 05:27:42;;;;;;;6.07;5.57;;;19.60;99.90;;;;;;5079100;28;20202;-77
2021/06/28 05:30:11;;;;;;;5.53;5.13;;;20.30;99.90;;;;;;5077303;28;20256;-77
2021/06/28 05:32:37;;;;;;;6.63;5.60;;;20.90;99.90;;;;;;5074179;28;20195;-77
2021/06/28 05:35:04;;;;;;;5.23;4.83;;;21.20;99.90;;;;;;5070357;28;20428;-77
2021/06/28 05:37:30;;;;;;;4.60;4.30;;;21.30;99.90;;;;;;5077733;28;20447;-77
2021/06/28 05:39:55;;;;;;;6.17;5.70;;;21.60;99.90;;;;;;5079531;28;20468;-77
2021/06/28 05:42:21;;;;;;;5.63;5.23;;;21.60;99.90;;;;;;5081019;28;20171;-77
2021/06/28 05:44:47;;;;;;;5.33;4.93;;;21.30;99.90;;;;;;5075724;28;20683;-77
2021/06/28 05:47:14;;;;;;;5.90;5.40;;;21.40;99.90;;;;;;5079779;28;20190;-77
2021/06/28 05:49:41;;;;;;;5.23;4.83;;;21.70;99.90;;;;;;5081601;28;20198;-77
2021/06/28 05:52:07;;;;;;;4.83;4.43;;;21.90;99.90;;;;;;5080330;28;20432;-78
2021/06/28 05:54:33;;;;;;;5.07;4.67;;;22.70;99.90;;;;;;5080881;28;20430;-78
2021/06/28 05:56:58;;;;;;;4.60;4.30;;;22.50;99.90;;;;;;5075946;28;20994;-76
2021/06/28 05:59:24;;;;;;;5.00;4.70;;;22.50;99.90;;;;;;5081968;28;20244;-77
2021/06/28 06:01:50;;;;;;;4.50;4.20;;;22.80;99.90;;;;;;5077331;28;20173;-77
2021/06/28 06:04:16;;;;;;;4.50;4.10;;;23.40;99.90;;;;;;5079448;28;20940;-77
2021/06/28 06:06:42;;;;;;;4.20;3.90;;;23.70;99.90;;;;;;5080495;28;20216;-77
2021/06/28 06:09:08;;;;;;;4.17;3.83;;;24.30;99.90;;;;;;5078755;28;20645;-77
2021/06/28 06:11:34;;;;;;;4.10;3.80;;;24.50;99.90;;;;;;5075530;28;20481;-76
2021/06/28 06:13:59;;;;;;;4.37;3.97;;;25.00;99.30;;;;;;5079988;28;20472;-77
2021/06/28 06:16:25;;;;;;;4.07;3.77;;;25.20;98.50;;;;;;5072696;28;20195;-78
2021/06/28 06:18:52;;;;;;;4.30;4.00;;;25.40;96.60;;;;;;5078919;28;20224;-78
2021/06/28 06:21:20;;;;;;;4.50;4.30;;;25.60;94.20;;;;;;5070347;28;20190;-78
2021/06/28 06:23:46;;;;;;;4.13;3.93;;;25.70;93.30;;;;;;5074461;28;20985;-78
2021/06/28 06:26:11;;;;;;;4.37;4.07;;;25.90;91.70;;;;;;5075280;28;20535;-79
2021/06/28 06:28:37;;;;;;;3.80;3.60;;;26.10;92.00;;;;;;5074890;28;20199;-78
2021/06/28 06:31:03;;;;;;;4.53;4.23;;;26.40;90.50;;;;;;5068004;28;20239;-78
2021/06/28 06:33:28;;;;;;;3.90;3.60;;;26.80;90.90;;;;;;5059976;28;20474;-77
2021/06/28 06:35:54;;;;;;;3.40;3.20;;;27.30;88.30;;;;;;5072307;28;20188;-81
2021/06/28 06:38:19;;;;;;;3.63;3.43;;;27.70;83.60;;;;;;5069738;28;20306;-81
2021/06/28 06:40:48;;;;;;;3.87;3.67;;;28.20;77.20;;;;;;5070100;28;20189;-81
2021/06/28 06:43:14;;;;;;;3.47;3.27;;;28.60;73.10;;;;;;5074065;28;20643;-81
2021/06/28 06:45:40;;;;;;;3.90;3.70;;;29.00;70.90;;;;;;5079625;28;20440;-82
2021/06/28 06:48:06;;;;;;;4.40;4.10;;;29.30;69.90;;;;;;5071324;28;20449;-81
2021/06/28 06:50:32;;;;;;;3.83;3.60;;;29.50;67.50;;;;;;5072123;28;20272;-82
2021/06/28 06:52:57;;;;;;;3.70;3.47;;;29.60;68.00;;;;;;5077468;28;20533;-82
2021/06/28 06:55:24;;;;;;;4.03;3.77;;;29.80;66.30;;;;;;5071773;28;20189;-82
2021/06/28 06:57:50;;;;;;;3.43;3.23;;;30.00;64.50;;;;;;5073819;28;20197;-82
2021/06/28 07:00:19;;;;;;;3.50;3.30;;;30.30;63.20;;;;;;5072787;28;20768;-83
2021/06/28 07:02:45;;;;;;;4.03;3.80;;;30.70;59.50;;;;;;5080674;28;20209;-82
2021/06/28 07:05:12;;;;;;;3.80;3.57;;;30.80;59.90;;;;;;5073655;28;20439;-86
2021/06/28 07:07:40;;;;;;;3.93;3.73;;;31.20;61.00;;;;;;5070642;28;20482;-84
2021/06/28 07:10:11;;;;;;;4.03;3.80;;;31.40;59.30;;;;;;5074732;28;20451;-84
2021/06/28 07:12:37;;;;;;;4.00;3.80;;;31.90;59.30;;;;;;5074522;28;20423;-81
2021/06/28 07:15:04;;;;;;;3.50;3.30;;;31.60;56.10;;;;;;5070928;28;20431;-83
2021/06/28 07:17:30;;;;;;;3.97;3.77;;;31.80;57.90;;;;;;5071987;28;20652;-81
2021/06/28 07:19:55;;;;;;;4.10;3.80;;;31.60;58.60;;;;;;5071540;28;20474;-83
2021/06/28 07:22:21;;;;;;;4.00;3.70;;;31.40;58.00;;;;;;5076503;28;20177;-81
2021/06/28 07:24:47;;;;;;;4.40;4.10;;;31.40;58.30;;;;;;5074169;28;20742;-83
2021/06/28 07:27:12;;;;;;;4.40;4.10;;;30.90;58.60;;;;;;5073209;28;20667;-83
2021/06/28 07:29:38;;;;;;;4.40;4.10;;;30.50;59.70;;;;;;5078387;28;20435;-84
2021/06/28 07:32:04;;;;;;;4.50;4.20;;;29.80;63.20;;;;;;5070209;28;20244;-82
2021/06/28 07:34:30;;;;;;;3.97;3.77;;;29.40;64.90;;;;;;5067213;28;20199;-80
2021/06/28 07:36:56;;;;;;;4.50;4.20;;;29.20;67.90;;;;;;5083652;28;20433;-83
2021/06/28 07:39:21;;;;;;;4.87;4.43;;;29.10;67.60;;;;;;5081599;28;20228;-80
2021/06/28 07:41:47;;;;;;;4.73;4.50;;;29.10;69.70;;;;;;5075041;28;20192;-81
2021/06/28 07:44:12;;;;;;;4.47;4.17;;;29.00;69.80;;;;;;5074429;28;20189;-83
2021/06/28 07:46:38;;;;;;;5.30;4.80;;;28.90;70.50;;;;;;5071482;28;20218;-82
2021/06/28 07:49:04;;;;;;;4.43;4.13;;;28.20;67.40;;;;;;5071521;28;20187;-83
2021/06/28 07:51:35;;;;;;;4.00;3.70;;;28.00;71.80;;;;;;5070536;28;20205;-82
2021/06/28 07:54:01;;;;;;;3.90;3.60;;;27.90;74.60;;;;;;5073275;28;20468;-82
2021/06/28 07:56:27;;;;;;;4.47;4.07;;;27.60;74.80;;;;;;5077426;28;20436;-83
2021/06/28 07:58:52;;;;;;;4.63;3.87;;;27.80;77.90;;;;;;5069892;28;20472;-84
2021/06/28 08:01:20;;;;;;;4.00;3.80;;;28.40;80.00;;;;;;5069723;28;20215;-84
2021/06/28 08:03:47;;;;;;;3.80;3.57;;;29.20;75.20;;;;;;5064889;28;20196;-81
2021/06/28 08:06:17;;;;;;;3.60;3.40;;;30.20;67.40;;;;;;5072221;28;20755;-81
2021/06/28 08:08:43;;;;;;;5.33;5.03;;;31.20;62.20;;;;;;5069080;28;21001;-82
2021/06/28 08:11:09;;;;;;;4.40;4.10;;;32.20;60.40;;;;;;5071485;28;20455;-80
2021/06/28 08:14:02;;;;;;;4.20;4.00;;;32.60;58.70;;;;;;5068406;28;20447;-78
2021/06/28 08:16:28;;;;;;;4.50;4.10;;;33.00;55.70;;;;;;5065260;28;20959;-80
2021/06/28 08:18:54;;;;;;;4.03;3.73;;;33.60;57.80;;;;;;5069669;28;20538;-79
2021/06/28 08:21:20;;;;;;;3.83;3.63;;;33.80;54.60;;;;;;5070762;28;20497;-80
2021/06/28 08:23:47;;;;;;;3.53;3.33;;;33.90;52.40;;;;;;5069866;28;20464;-80
2021/06/28 08:26:13;;;;;;;3.87;3.57;;;34.30;52.60;;;;;;5067749;28;20431;-80
2021/06/28 08:28:39;;;;;;;3.63;3.43;;;35.00;53.20;;;;;;5056107;28;20910;-80
2021/06/28 08:31:05;;;;;;;3.73;3.53;;;35.40;49.70;;;;;;5066010;28;20867;-81
2021/06/28 08:33:32;;;;;;;3.70;3.50;;;35.70;49.30;;;;;;5069357;28;20435;-81
2021/06/28 08:35:58;;;;;;;5.83;3.67;;;35.30;46.80;;;;;;5068638;28;20438;-81
2021/06/28 08:38:24;;;;;;;3.40;3.20;;;35.20;48.90;;;;;;5062898;28;20467;-81
2021/06/28 08:40:50;;;;;;;4.10;3.73;;;35.50;47.90;;;;;;5068609;28;20443;-82
2021/06/28 08:43:16;;;;;;;3.83;3.57;;;36.10;49.40;;;;;;5068190;28;20218;-82
2021/06/28 08:45:43;;;;;;;3.87;3.57;;;36.70;50.70;;;;;;5065280;28;20435;-81
2021/06/28 08:48:10;;;;;;;3.60;3.40;;;37.00;47.50;;;;;;5067053;28;20232;-81
2021/06/28 08:50:38;;;;;;;3.90;3.70;;;37.30;43.20;;;;;;5069172;28;20437;-79
2021/06/28 08:53:06;;;;;;;3.97;3.57;;;36.70;44.10;;;;;;5069686;28;20526;-79
2021/06/28 08:55:32;;;;;;;3.93;3.73;;;36.30;47.40;;;;;;5069742;28;20519;-79
2021/06/28 08:57:58;;;;;;;4.73;4.43;;;36.70;48.10;;;;;;5065109;28;20444;-79
2021/06/28 09:00:24;;;;;;;4.77;4.37;;;37.10;50.40;;;;;;5066298;28;20829;-79
2021/06/28 09:02:55;;;;;;;3.63;3.33;;;37.20;46.00;;;;;;5068290;28;20284;-79
2021/06/28 09:05:20;;;;;;;3.60;3.30;;;37.60;45.70;;;;;;5067943;28;20188;-78
2021/06/28 09:07:46;;;;;;;4.00;3.80;;;38.00;45.80;;;;;;5065678;28;20468;-79
2021/06/28 09:10:32;;;;;;;3.97;3.70;;;38.80;45.90;;;;;;5067968;28;20212;-79
2021/06/28 09:12:57;;;;;;;3.43;3.23;;;39.60;44.80;;;;;;5062874;28;20612;-79
2021/06/28 09:15:41;;;;;;;3.30;3.10;;;40.40;42.30;;;;;;5068032;28;20432;-78
2021/06/28 09:18:18;;;;;;;3.33;3.23;;;41.00;41.10;;;;;;5068090;28;20602;-78
2021/06/28 09:20:45;;;;;;;3.20;3.10;;;41.50;38.90;;;;;;5067561;28;20482;-78
2021/06/28 09:23:23;;;;;;;3.73;3.53;;;41.80;39.30;;;;;;5068100;28;20486;-75
2021/06/28 09:25:52;;;;;;;3.30;3.10;;;41.30;38.20;;;;;;5061032;28;21020;-77
2021/06/28 09:28:33;;;;;;;3.80;3.60;;;40.40;35.30;;;;;;5067292;28;20521;-76
2021/06/28 09:30:59;;;;;;;3.60;3.40;;;39.20;36.60;;;;;;5067557;28;20443;-78
2021/06/28 09:33:24;;;;;;;3.87;3.50;;;38.30;39.60;;;;;;5067700;28;20432;-78
2021/06/28 09:35:50;;;;;;;3.70;3.50;;;38.00;38.70;;;;;;5067465;28;20196;-78
2021/06/28 09:38:32;;;;;;;3.70;3.40;;;37.50;40.20;;;;;;5066853;28;20229;-77
2021/06/28 09:41:28;;;;;;;3.47;3.27;;;37.60;41.20;;;;;;5067503;28;20562;-78
2021/06/28 09:44:01;;;;;;;3.93;3.73;;;38.40;41.70;;;;;;5060363;28;20969;-77
2021/06/28 09:46:27;;;;;;;3.37;3.17;;;39.40;41.30;;;;;;5066207;28;20432;-78
2021/06/28 09:48:54;;;;;;;2.80;2.60;;;40.40;38.20;;;;;;5067215;28;20526;-78
2021/06/28 09:51:28;;;;;;;3.30;3.07;;;40.50;35.40;;;;;;5067690;28;20231;-79
2021/06/28 09:54:15;;;;;;;3.40;3.30;;;40.90;31.00;;;;;;5059808;28;20443;-78
2021/06/28 09:56:46;;;;;;;3.70;3.50;;;40.90;30.60;;;;;;5067556;28;20486;-78
2021/06/28 09:59:32;;;;;;;3.37;3.20;;;40.10;31.60;;;;;;5067860;28;20474;-78
2021/06/28 10:02:15;;;;;;;3.10;3.00;;;40.20;30.90;;;;;;5059501;28;20544;-78
2021/06/28 10:04:51;;;;;;;3.80;3.30;;;40.50;30.70;;;;;;5065480;28;20427;-78
2021/06/28 10:07:18;;;;;;;3.47;3.27;;;40.60;31.00;;;;;;5066915;28;20616;-78
2021/06/28 10:09:43;;;;;;;4.00;3.70;;;41.30;29.50;;;;;;5066912;28;20451;-77
2021/06/28 10:12:29;;;;;;;3.30;3.00;;;41.80;27.60;;;;;;5067304;28;20428;-77
2021/06/28 10:14:56;;;;;;;2.90;2.70;;;41.40;28.50;;;;;;5066112;28;20714;-75
2021/06/28 10:17:22;;;;;;;3.10;2.97;;;41.10;28.50;;;;;;5066688;28;20455;-78
2021/06/28 10:19:47;;;;;;;3.00;2.70;;;40.80;27.50;;;;;;5066382;28;20475;-77
2021/06/28 10:22:13;;;;;;;4.03;2.60;;;40.50;28.50;;;;;;5066968;28;20277;-78
2021/06/28 10:24:39;;;;;;;2.90;2.70;;;41.20;27.50;;;;;;5067658;28;20321;-77
2021/06/28 10:27:05;;;;;;;3.00;2.80;;;41.80;25.80;;;;;;5059611;28;20194;-77
2021/06/28 10:29:34;;;;;;;3.20;3.00;;;42.10;26.80;;;;;;5067010;28;20497;-77
2021/06/28 10:32:09;;;;;;;2.90;2.77;;;42.60;25.30;;;;;;5066511;28;20193;-77
2021/06/28 10:34:35;;;;;;;2.87;2.77;;;43.60;25.00;;;;;;5067172;28;20488;-77
2021/06/28 10:37:03;;;;;;;2.70;2.60;;;44.60;24.30;;;;;;5066485;28;20876;-77
2021/06/28 10:39:31;;;;;;;2.80;2.63;;;45.40;23.40;;;;;;5067524;28;20478;-77
2021/06/28 10:41:59;;;;;;;3.00;2.80;;;45.90;22.30;;;;;;5066800;28;20527;-76
2021/06/28 10:44:45;;;;;;;3.23;3.10;;;46.60;22.20;;;;;;5067197;28;20439;-77
2021/06/28 10:47:11;;;;;;;3.03;2.83;;;47.20;21.90;;;;;;5066718;28;20431;-78
2021/06/28 10:49:52;;;;;;;3.50;3.30;;;46.90;22.30;;;;;;5066765;28;20493;-75
2021/06/28 10:52:36;;;;;;;3.80;3.60;;;46.50;23.80;;;;;;5066038;28;20571;-77
2021/06/28 10:55:21;;;;;;;3.53;3.33;;;46.60;22.50;;;;;;5066666;28;20428;-77
2021/06/28 10:57:49;;;;;;;3.50;3.30;;;46.60;22.30;;;;;;5066810;28;20436;-77
2021/06/28 11:00:16;;;;;;;4.17;3.87;;;46.80;22.50;;;;;;5066554;28;20436;-77
2021/06/28 11:02:43;;;;;;;3.80;3.60;;;47.00;23.10;;;;;;5064785;28;20986;-77
2021/06/28 11:05:11;;;;;;;3.63;3.43;;;47.20;22.50;;;;;;5067220;28;20527;-77
2021/06/28 11:07:45;;;;;;;2.70;2.60;;;47.30;21.80;;;;;;5067892;28;20467;-77
2021/06/28 11:10:37;;;;;;;3.17;2.97;;;46.90;21.90;;;;;;5068819;28;20964;-77
2021/06/28 11:13:27;;;;;;;3.40;3.20;;;47.20;23.70;;;;;;5066683;28;20420;-77
2021/06/28 11:15:53;;;;;;;3.30;3.10;;;47.00;21.50;;;;;;5067124;28;20440;-77
2021/06/28 11:18:29;;;;;;;3.13;2.93;;;46.30;22.70;;;;;;5067139;28;20471;-77
2021/06/28 11:20:55;;;;;;;3.10;3.00;;;46.10;23.50;;;;;;5067980;28;20562;-78
2021/06/28 11:23:21;;;;;;;3.67;3.47;;;46.20;22.60;;;;;;5067746;28;20516;-77
2021/06/28 11:25:55;;;;;;;3.43;3.23;;;45.80;21.80;;;;;;5068095;28;20507;-77
2021/06/28 11:28:37;;;;;;;3.43;3.23;;;45.90;23.40;;;;;;5069294;28;20193;-77
2021/06/28 11:31:03;;;;;;;3.70;3.50;;;45.50;23.10;;;;;;5071487;28;20427;-77
2021/06/28 11:33:45;;;;;;;3.60;3.40;;;45.70;24.40;;;;;;5070707;28;20496;-77
2021/06/28 11:36:22;;;;;;;3.20;3.10;;;46.10;23.50;;;;;;5066359;28;20233;-77
2021/06/28 11:38:48;;;;;;;4.00;3.80;;;45.60;23.20;;;;;;5063495;28;20455;-75
2021/06/28 11:41:17;;;;;;;3.30;3.20;;;45.30;22.50;;;;;;5069339;28;20428;-76
2021/06/28 11:43:56;;;;;;;3.53;3.33;;;44.90;24.60;;;;;;5060168;28;20556;-77
2021/06/28 11:46:30;;;;;;;3.70;3.50;;;45.50;22.90;;;;;;5069453;28;20519;-77
2021/06/28 11:49:02;;;;;;;4.13;3.50;;;46.30;22.80;;;;;;5070028;28;20432;-77
2021/06/28 11:51:36;;;;;;;3.20;3.00;;;46.00;22.90;;;;;;5069386;28;20576;-77
2021/06/28 11:54:06;;;;;;;4.07;3.77;;;45.70;22.80;;;;;;5069621;28;20436;-76
2021/06/28 11:56:36;;;;;;;4.13;3.93;;;45.10;24.10;;;;;;5069317;28;21011;-79
2021/06/28 11:59:13;;;;;;;4.00;3.80;;;44.10;24.20;;;;;;5069121;28;20514;-77
2021/06/28 12:01:44;;;;;;;4.60;4.17;;;42.80;25.90;;;;;;5069384;28;21150;-77
2021/06/28 12:04:20;;;;;;;4.63;4.33;;;42.40;25.30;;;;;;5069630;28;20436;-77
2021/06/28 12:06:48;;;;;;;4.13;3.93;;;42.90;27.10;;;;;;5068732;28;20423;-76
2021/06/28 12:09:32;;;;;;;4.33;4.03;;;43.00;27.10;;;;;;5069322;28;20974;-77
2021/06/28 12:12:09;;;;;;;4.23;3.97;;;43.10;26.10;;;;;;5069237;28;20435;-77
2021/06/28 12:14:39;;;;;;;4.33;4.13;;;43.50;26.70;;;;;;5064571;28;20432;-77
2021/06/28 12:17:33;;;;;;;3.97;3.67;;;44.70;25.50;;;;;;5064702;28;20432;-76
2021/06/28 12:20:07;;;;;;;4.10;3.87;;;46.00;25.40;;;;;;5064593;28;20877;-77
2021/06/28 12:22:39;;;;;;;3.90;3.70;;;47.00;23.80;;;;;;5069271;28;20433;-77
2021/06/28 12:25:10;;;;;;;4.10;3.90;;;47.90;23.10;;;;;;5068648;28;20482;-77
2021/06/28 12:27:37;;;;;;;4.03;3.83;;;47.20;21.50;;;;;;5067540;28;20860;-76
2021/06/28 12:30:16;;;;;;;3.90;3.70;;;47.00;22.90;;;;;;5068669;28;20428;-76
2021/06/28 12:32:47;;;;;;;3.47;3.27;;;45.90;22.90;;;;;;5062231;28;20480;-77
2021/06/28 12:35:17;;;;;;;4.40;4.20;;;45.80;24.00;;;;;;5067713;28;20443;-77
2021/06/28 12:37:50;;;;;;;4.07;3.77;;;45.70;24.10;;;;;;5067561;28;20496;-77
2021/06/28 12:40:19;;;;;;;4.10;3.90;;;45.30;24.40;;;;;;5068733;28;20479;-76
2021/06/28 12:42:46;;;;;;;4.03;3.67;;;44.80;24.50;;;;;;5067581;28;20504;-75
2021/06/28 12:45:15;;;;;;;4.60;4.20;;;44.40;24.60;;;;;;5080911;28;20435;-76
2021/06/28 12:47:47;;;;;;;5.40;4.63;;;43.90;25.30;;;;;;5070131;28;20788;-78
2021/06/28 12:50:22;;;;;;;4.17;3.97;;;43.20;25.60;;;;;;5074516;28;20441;-76
2021/06/28 12:52:49;;;;;;;4.47;4.17;;;43.00;27.00;;;;;;5062232;28;20431;-77